createdAt,value
2023-02-06T00:00:12.358Z,102995.47
2023-02-06T00:02:50.039Z,102997.64
2023-02-06T00:05:28.081Z,102991.98
2023-02-06T00:08:07.521Z,102988.48
2023-02-06T00:10:46.076Z,102983.88
2023-02-06T00:13:21.507Z,102982.15
2023-02-06T00:15:59.869Z,102981.48
2023-02-06T00:18:37.599Z,102986.08
2023-02-06T00:21:15.582Z,102989.64
2023-02-06T00:23:53.968Z,102996.02
2023-02-06T00:26:33.338Z,102997.71
2023-02-06T00:29:13.329Z,102997.78
2023-02-06T00:31:51.346Z,102989.69
2023-02-06T00:34:29.217Z,102986.95
2023-02-06T00:37:07.771Z,102992.75
2023-02-06T00:39:54.376Z,102989.80
2023-02-06T00:42:32.756Z,102988.28
2023-02-06T00:45:11.697Z,102985.88
2023-02-06T00:47:49.747Z,102986.02
2023-02-06T00:50:20.372Z,102990.52
2023-02-06T00:52:54.635Z,102991.17
2023-02-06T00:55:33.641Z,102991.48
2023-02-06T00:58:13.450Z,102982.30
2023-02-06T01:00:51.329Z,102985.79
2023-02-06T01:03:30.118Z,102988.95
2023-02-06T01:06:09.929Z,102985.50
2023-02-06T01:08:48.014Z,102980.84
2023-02-06T01:11:27.822Z,102974.55
2023-02-06T01:15:28.637Z,102973.09
2023-02-06T01:18:06.932Z,102970.02
2023-02-06T01:20:44.901Z,102974.77
2023-02-06T01:23:15.724Z,102968.14
2023-02-06T01:25:54.565Z,102968.09
2023-02-06T01:28:25.685Z,102970.73
2023-02-06T01:30:57.108Z,102970.13
2023-02-06T01:33:35.573Z,102965.64
2023-02-06T01:36:13.711Z,102957.48
2023-02-06T01:38:52.055Z,102956.92
2023-02-06T01:41:29.904Z,102962.89
2023-02-06T01:44:23.272Z,102964.06
2023-02-06T01:46:59.060Z,102958.41
2023-02-06T01:49:39.934Z,102954.88
2023-02-06T01:52:31.981Z,102954.64
2023-02-06T01:55:10.820Z,102951.27
2023-02-06T01:57:49.387Z,102943.02
2023-02-06T02:00:21.083Z,102938.52
2023-02-06T02:02:57.009Z,102951.95
2023-02-06T02:05:36.287Z,102961.48
2023-02-06T02:08:27.369Z,102961.80
2023-02-06T02:11:02.762Z,102964.18
2023-02-06T02:13:38.882Z,102957.89
2023-02-06T02:16:45.038Z,102953.34
2023-02-06T02:19:42.617Z,102948.94
2023-02-06T02:22:57.990Z,102946.41
2023-02-06T02:26:17.096Z,102943.67
2023-02-06T02:29:34.594Z,102944.61
2023-02-06T02:32:40.758Z,102944.72
2023-02-06T02:35:53.766Z,102950.05
2023-02-06T02:38:46.016Z,102954.06
2023-02-06T02:41:35.201Z,102961.68
2023-02-06T02:44:23.336Z,102968.05
2023-02-06T02:46:59.731Z,102969.19
2023-02-06T02:49:33.901Z,102971.19
2023-02-06T02:52:13.103Z,102970.88
2023-02-06T02:54:50.556Z,102969.91
2023-02-06T02:57:31.518Z,102972.55
2023-02-06T03:00:10.433Z,102977.65
2023-02-06T03:02:50.903Z,102971.02
2023-02-06T03:05:29.834Z,102970.06
2023-02-06T03:08:46.520Z,102972.80
2023-02-06T03:11:26.172Z,102970.83
2023-02-06T03:14:16.697Z,102963.58
2023-02-06T03:17:00.254Z,102962.30
2023-02-06T03:19:42.412Z,102966.11
2023-02-06T03:22:18.457Z,102959.93
2023-02-06T03:24:56.524Z,102960.98
2023-02-06T03:27:35.996Z,102959.97
2023-02-06T03:30:19.057Z,102963.45
2023-02-06T03:33:03.466Z,102958.54
2023-02-06T03:35:39.314Z,102957.92
2023-02-06T03:38:16.930Z,102958.98
2023-02-06T03:40:57.262Z,102956.45
2023-02-06T03:43:36.166Z,102956.34
2023-02-06T03:46:17.092Z,102954.56
2023-02-06T03:48:57.545Z,102951.10
2023-02-06T03:51:48.752Z,102949.23
2023-02-06T03:54:24.333Z,102952.61
2023-02-06T03:57:02.237Z,102956.66
2023-02-06T03:59:37.953Z,102950.91
2023-02-06T04:02:16.935Z,102952.73
2023-02-06T04:04:55.111Z,102953.83
2023-02-06T04:07:36.377Z,102954.45
2023-02-06T04:10:15.119Z,102954.99
2023-02-06T04:12:53.550Z,102959.16
2023-02-06T04:15:24.315Z,102959.65
2023-02-06T04:18:00.505Z,102956.86
2023-02-06T04:20:41.350Z,102954.89
2023-02-06T04:23:19.303Z,102955.08
2023-02-06T04:25:57.448Z,102951.41
2023-02-06T04:28:35.737Z,102953.52
2023-02-06T04:31:06.130Z,102954.03
2023-02-06T04:33:38.375Z,102955.60
2023-02-06T04:36:17.233Z,102958.17
2023-02-06T04:38:55.259Z,102959.42
2023-02-06T04:41:26.561Z,102961.68
2023-02-06T04:44:05.122Z,102957.94
2023-02-06T04:46:41.146Z,102952.25
2023-02-06T04:49:19.237Z,102956.73
2023-02-06T04:51:56.965Z,102949.39
2023-02-06T04:54:35.688Z,102943.95
2023-02-06T04:57:06.282Z,102944.10
2023-02-06T04:59:40.493Z,102945.21
2023-02-06T05:02:19.578Z,102945.03
2023-02-06T05:04:57.408Z,102947.20
2023-02-06T05:07:35.264Z,102953.14
2023-02-06T05:10:15.129Z,102954.42
2023-02-06T05:12:52.779Z,102958.13
2023-02-06T05:15:30.175Z,102961.91
2023-02-06T05:18:08.825Z,102959.83
2023-02-06T05:20:46.532Z,102962.09
2023-02-06T05:23:25.144Z,102965.34
2023-02-06T05:26:03.421Z,102967.12
2023-02-06T05:28:40.630Z,102972.49
2023-02-06T05:31:11.411Z,102975.20
2023-02-06T05:35:39.615Z,102975.09
2023-02-06T05:38:17.913Z,102972.72
2023-02-06T05:40:57.024Z,102971.10
2023-02-06T05:47:01.042Z,102977.30
2023-02-06T05:49:40.229Z,102978.21
2023-02-06T05:52:17.844Z,102975.20
2023-02-06T05:54:55.330Z,102974.61
2023-02-06T05:57:32.454Z,102971.22
2023-02-06T06:00:11.532Z,102973.75
2023-02-06T06:02:42.884Z,102974.64
2023-02-06T06:05:21.779Z,102973.75
2023-02-06T06:11:35.619Z,102971.46
2023-02-06T06:16:58.765Z,102978.75
2023-02-06T06:19:34.739Z,102981.63
2023-02-06T06:22:11.919Z,102985.69
2023-02-06T06:26:19.616Z,102980.41
2023-02-06T06:28:58.223Z,102975.28
2023-02-06T06:31:35.639Z,102974.54
2023-02-06T06:34:13.567Z,102977.69
2023-02-06T06:36:52.183Z,102976.40
2023-02-06T06:39:30.445Z,102980.31
2023-02-06T06:42:09.343Z,102982.23
2023-02-06T06:44:46.665Z,102984.30
2023-02-06T06:47:22.425Z,102982.77
2023-02-06T06:50:01.454Z,102988.17
2023-02-06T06:52:38.995Z,102990.84
2023-02-06T06:55:16.102Z,102998.82
2023-02-06T06:57:48.159Z,102999.16
2023-02-06T07:00:24.063Z,103002.32
2023-02-06T07:03:02.609Z,103001.27
2023-02-06T07:05:42.368Z,103004.63
2023-02-06T07:08:21.224Z,103004.91
2023-02-06T07:10:59.968Z,103010.46
2023-02-06T07:13:37.109Z,103019.96
2023-02-06T07:16:16.076Z,103018.89
2023-02-06T07:18:49.231Z,103020.60
2023-02-06T07:21:28.246Z,103021.80
2023-02-06T07:24:08.622Z,103025.35
2023-02-06T07:26:46.363Z,103027.27
2023-02-06T07:29:24.666Z,103019.84
2023-02-06T07:32:02.627Z,103020.85
2023-02-06T07:34:41.013Z,103020.44
2023-02-06T07:37:18.947Z,103021.77
2023-02-06T07:39:51.118Z,103016.10
2023-02-06T07:42:27.842Z,103021.02
2023-02-06T07:45:05.382Z,103023.48
2023-02-06T07:47:44.315Z,103018.48
2023-02-06T07:50:22.907Z,103014.64
2023-02-06T07:53:00.640Z,103009.74
2023-02-06T07:55:39.679Z,103008.79
2023-02-06T07:58:17.400Z,103007.33
2023-02-06T08:00:55.750Z,103006.45
2023-02-06T08:03:35.762Z,103006.05
2023-02-06T08:06:18.109Z,103009.73
2023-02-06T08:09:00.289Z,103013.04
2023-02-06T08:11:38.121Z,103009.25
2023-02-06T08:14:08.795Z,103007.66
2023-02-06T08:16:46.821Z,103010.98
2023-02-06T08:19:24.542Z,103013.94
2023-02-06T08:22:02.282Z,103010.98
2023-02-06T08:24:39.752Z,103006.42
2023-02-06T08:27:10.414Z,103009.77
2023-02-06T08:29:46.077Z,103007.36
2023-02-06T08:32:24.403Z,103005.80
2023-02-06T08:35:02.470Z,103004.95
2023-02-06T08:37:41.466Z,103000.14
2023-02-06T08:40:19.412Z,103000.44
2023-02-06T08:42:56.942Z,103000.70
2023-02-06T08:45:34.853Z,102992.21
2023-02-06T08:48:13.522Z,102994.01
2023-02-06T08:50:51.112Z,102989.53
2023-02-06T08:53:31.330Z,102993.23
2023-02-06T08:56:16.838Z,102997.08
2023-02-06T08:58:54.910Z,102993.64
2023-02-06T09:01:35.724Z,102994.38
2023-02-06T09:04:15.845Z,102985.29
2023-02-06T09:06:54.783Z,102986.02
2023-02-06T09:09:34.204Z,102978.85
2023-02-06T09:12:13.237Z,102977.61
2023-02-06T09:14:50.827Z,102979.11
2023-02-06T09:17:32.256Z,102975.91
2023-02-06T09:20:11.616Z,102976.94
2023-02-06T09:22:49.638Z,102971.67
2023-02-06T09:25:27.732Z,102977.77
2023-02-06T09:28:06.132Z,102978.10
2023-02-06T09:30:45.529Z,102977.21
2023-02-06T09:33:24.408Z,102974.35
2023-02-06T09:36:17.107Z,102975.13
2023-02-06T09:38:58.601Z,102978.81
2023-02-06T09:41:48.246Z,102981.55
2023-02-06T09:44:58.974Z,102981.14
2023-02-06T09:47:48.514Z,102989.08
2023-02-06T09:50:25.979Z,102990.36
2023-02-06T09:53:08.939Z,102986.17
2023-02-06T09:55:53.264Z,102980.46
2023-02-06T09:58:51.126Z,102989.86
2023-02-06T10:01:39.484Z,102980.97
2023-02-06T10:04:39.881Z,102976.77
2023-02-06T10:08:11.937Z,102965.84
2023-02-06T10:11:02.874Z,102965.34
2023-02-06T10:13:50.551Z,102964.90
2023-02-06T10:16:55.467Z,102961.05
2023-02-06T10:20:17.272Z,102960.52
2023-02-06T10:23:39.262Z,102953.67
2023-02-06T10:26:20.655Z,102951.40
2023-02-06T10:29:05.241Z,102950.63
2023-02-06T10:32:16.532Z,102948.33
2023-02-06T10:35:10.203Z,102955.61
2023-02-06T10:38:29.845Z,102956.58
2023-02-06T10:41:42.301Z,102950.33
2023-02-06T10:44:51.244Z,102951.22
2023-02-06T10:47:56.580Z,102941.45
2023-02-06T10:50:48.555Z,102939.08
2023-02-06T10:53:37.277Z,102938.55
2023-02-06T10:56:18.898Z,102945.46
2023-02-06T10:59:21.866Z,102945.10
2023-02-06T11:02:16.293Z,102944.91
2023-02-06T11:05:07.634Z,102942.57
2023-02-06T11:07:46.922Z,102941.65
2023-02-06T11:10:27.880Z,102940.98
2023-02-06T11:13:33.386Z,102940.61
2023-02-06T11:16:17.419Z,102950.92
2023-02-06T11:18:58.210Z,102948.65
2023-02-06T11:21:59.531Z,102954.19
2023-02-06T11:24:32.730Z,102951.81
2023-02-06T11:27:24.217Z,102959.61
2023-02-06T11:29:54.957Z,102963.88
2023-02-06T11:32:55.755Z,102965.14
2023-02-06T11:35:55.064Z,102975.16
2023-02-06T11:38:32.718Z,102983.25
2023-02-06T11:41:23.017Z,102985.55
2023-02-06T11:44:07.052Z,102986.20
2023-02-06T11:46:49.151Z,102985.20
2023-02-06T11:49:31.037Z,102985.08
2023-02-06T11:52:28.022Z,102990.41
2023-02-06T11:55:09.265Z,102995.67
2023-02-06T11:58:03.682Z,102999.96
2023-02-06T12:00:39.102Z,103001.79
2023-02-06T12:04:17.648Z,102999.91
2023-02-06T12:07:23.103Z,103002.63
2023-02-06T12:09:53.577Z,103006.67
2023-02-06T12:12:45.374Z,102999.16
2023-02-06T12:15:45.825Z,102992.80
2023-02-06T12:18:36.144Z,102994.22
2023-02-06T12:21:50.573Z,102993.23
2023-02-06T12:24:50.117Z,102995.84
2023-02-06T12:27:32.221Z,102995.13
2023-02-06T12:30:35.749Z,102994.73
2023-02-06T12:33:42.317Z,102994.55
2023-02-06T12:36:37.765Z,102985.51
2023-02-06T12:39:25.061Z,102975.68
2023-02-06T12:42:41.437Z,102977.64
2023-02-06T12:45:50.184Z,102979.23
2023-02-06T12:48:59.840Z,102988.13
2023-02-06T12:51:54.112Z,102982.88
2023-02-06T12:54:49.353Z,102982.95
2023-02-06T12:57:33.188Z,102984.27
2023-02-06T13:00:46.406Z,102985.13
2023-02-06T13:03:57.126Z,102988.13
2023-02-06T13:06:55.974Z,102985.69
2023-02-06T13:09:43.173Z,102985.63
2023-02-06T13:12:29.651Z,102990.08
2023-02-06T13:15:22.839Z,102987.79
2023-02-06T13:17:58.849Z,102985.64
2023-02-06T13:20:56.234Z,102984.23
2023-02-06T13:23:28.299Z,102986.06
2023-02-06T13:25:59.162Z,102983.13
2023-02-06T13:28:48.338Z,102976.14
2023-02-06T13:31:32.837Z,102977.14
2023-02-06T13:34:18.020Z,102977.16
2023-02-06T13:36:57.056Z,102978.11
2023-02-06T13:39:37.816Z,102981.42
2023-02-06T13:42:45.607Z,102979.84
2023-02-06T13:45:47.594Z,102972.25
2023-02-06T13:49:24.974Z,102969.79
2023-02-06T13:53:03.801Z,102963.80
2023-02-06T13:56:16.977Z,102960.61
2023-02-06T13:59:01.050Z,102971.11
2023-02-06T14:01:37.811Z,102971.38
2023-02-06T14:04:24.944Z,102968.54
2023-02-06T14:07:32.157Z,102972.41
2023-02-06T14:10:36.639Z,102975.59
2023-02-06T14:13:16.963Z,102976.44
2023-02-06T14:16:19.005Z,102971.40
2023-02-06T14:19:27.719Z,102967.85
2023-02-06T14:22:28.653Z,102967.15
2023-02-06T14:25:37.204Z,102969.39
2023-02-06T14:28:58.136Z,102969.02
2023-02-06T14:32:05.349Z,102971.95
2023-02-06T14:35:18.068Z,102972.48
2023-02-06T14:38:32.314Z,102972.60
2023-02-06T14:41:12.077Z,102974.91
2023-02-06T14:43:53.453Z,102982.13
2023-02-06T14:46:33.091Z,102982.73
2023-02-06T14:49:19.206Z,102981.30
2023-02-06T14:51:56.737Z,102983.96
2023-02-06T14:54:38.821Z,102986.72
2023-02-06T14:57:28.507Z,102991.73
2023-02-06T15:00:15.570Z,102994.45
2023-02-06T15:03:08.381Z,102991.93
2023-02-06T15:05:46.884Z,102988.04
2023-02-06T15:08:28.687Z,102986.48
2023-02-06T15:11:08.559Z,102981.31
2023-02-06T15:13:53.535Z,102981.77
2023-02-06T15:16:31.844Z,102985.02
2023-02-06T15:19:39.691Z,102991.27
2023-02-06T15:22:33.920Z,102991.77
2023-02-06T15:25:35.252Z,102990.91
2023-02-06T15:28:17.470Z,102992.41
2023-02-06T15:31:04.311Z,102995.70
2023-02-06T15:33:45.121Z,103001.84
2023-02-06T15:36:40.020Z,103000.14
2023-02-06T15:39:18.770Z,102985.65
2023-02-06T15:41:57.942Z,102999.45
2023-02-06T15:44:38.915Z,102996.86
2023-02-06T15:47:18.824Z,102996.30
2023-02-06T15:50:01.467Z,103003.52
2023-02-06T15:52:43.500Z,103013.39
2023-02-06T15:55:32.401Z,103022.22
2023-02-06T15:58:07.150Z,103025.52
2023-02-06T16:00:40.885Z,103026.61
2023-02-06T16:03:23.469Z,103024.86
2023-02-06T16:06:00.489Z,103027.59
2023-02-06T16:08:39.622Z,103033.23
2023-02-06T16:11:36.781Z,103034.45
2023-02-06T16:14:32.025Z,103035.43
2023-02-06T16:17:42.616Z,103045.23
2023-02-06T16:20:41.333Z,103047.77
2023-02-06T16:23:33.943Z,103055.48
2023-02-06T16:26:25.816Z,103057.41
2023-02-06T16:29:31.637Z,103051.02
2023-02-06T16:32:22.705Z,103048.05
2023-02-06T16:35:01.776Z,103055.81
2023-02-06T16:37:39.644Z,103056.11
2023-02-06T16:40:18.832Z,103056.50
2023-02-06T16:42:56.552Z,103052.83
2023-02-06T16:45:34.306Z,103056.83
2023-02-06T16:48:12.443Z,103062.84
2023-02-06T16:50:44.858Z,103064.06
2023-02-06T16:53:26.597Z,103061.25
2023-02-06T16:56:03.211Z,103061.55
2023-02-06T16:58:42.037Z,103067.01
2023-02-06T17:01:25.969Z,103063.63
2023-02-06T17:04:01.726Z,103065.42
2023-02-06T17:06:40.411Z,103071.81
2023-02-06T17:09:21.519Z,103072.64
2023-02-06T17:11:59.442Z,103070.69
2023-02-06T17:14:38.852Z,103071.89
2023-02-06T17:17:21.416Z,103065.48
2023-02-06T17:20:00.523Z,103060.90
2023-02-06T17:22:39.014Z,103061.98
2023-02-06T17:25:17.249Z,103060.77
2023-02-06T17:27:49.771Z,103055.55
2023-02-06T17:30:29.738Z,103053.27
2023-02-06T17:33:10.649Z,103055.02
2023-02-06T17:35:50.236Z,103054.56
2023-02-06T17:38:27.721Z,103051.89
2023-02-06T17:41:06.018Z,103053.18
2023-02-06T17:43:45.641Z,103060.45
2023-02-06T17:46:23.702Z,103063.81
2023-02-06T17:49:03.970Z,103068.36
2023-02-06T17:51:44.386Z,103067.20
2023-02-06T17:54:22.828Z,103066.86
2023-02-06T17:57:00.721Z,103059.50
2023-02-06T17:59:39.002Z,103054.22
2023-02-06T18:02:19.277Z,103058.42
2023-02-06T18:04:57.537Z,103064.56
2023-02-06T18:07:32.103Z,103063.32
2023-02-06T18:10:05.120Z,103073.75
2023-02-06T18:12:43.862Z,103078.36
2023-02-06T18:15:22.901Z,103078.46
2023-02-06T18:18:02.156Z,103074.31
2023-02-06T18:20:41.458Z,103075.01
2023-02-06T18:23:21.160Z,103069.65
2023-02-06T18:26:02.867Z,103065.23
2023-02-06T18:28:40.994Z,103058.56
2023-02-06T18:31:30.214Z,103056.08
2023-02-06T18:34:08.569Z,103063.72
2023-02-06T18:36:45.039Z,103066.02
2023-02-06T18:39:23.468Z,103056.56
2023-02-06T18:42:20.135Z,103059.88
2023-02-06T18:44:58.343Z,103066.02
2023-02-06T18:47:32.042Z,103070.55
2023-02-06T18:50:05.942Z,103078.38
2023-02-06T18:52:44.219Z,103071.23
2023-02-06T18:55:22.094Z,103080.64
2023-02-06T18:57:59.765Z,103086.12
2023-02-06T19:00:39.226Z,103094.16
2023-02-06T19:03:17.010Z,103094.77
2023-02-06T19:05:55.634Z,103086.56
2023-02-06T19:08:33.548Z,103086.80
2023-02-06T19:11:12.478Z,103097.89
2023-02-06T19:13:44.534Z,103072.13
2023-02-06T19:16:23.559Z,103097.58
2023-02-06T19:19:01.838Z,103097.45
2023-02-06T19:21:39.986Z,103097.35
2023-02-06T19:24:20.730Z,103100.78
2023-02-06T19:26:59.222Z,103099.15
2023-02-06T19:29:35.477Z,103106.70
2023-02-06T19:32:12.304Z,103107.39
2023-02-06T19:34:47.159Z,103104.84
2023-02-06T19:37:25.598Z,103105.20
2023-02-06T19:40:03.281Z,103103.83
2023-02-06T19:42:40.906Z,103094.98
2023-02-06T19:45:18.580Z,103086.23
2023-02-06T19:47:57.713Z,103084.89
2023-02-06T19:50:36.327Z,103094.27
2023-02-06T19:53:16.780Z,103097.62
2023-02-06T19:55:55.764Z,103099.11
2023-02-06T19:58:33.704Z,103103.10
2023-02-06T20:01:19.978Z,103098.71
2023-02-06T20:03:57.829Z,103097.79
2023-02-06T20:06:36.866Z,103100.73
2023-02-06T20:09:16.485Z,103101.29
2023-02-06T20:11:54.572Z,103101.15
2023-02-06T20:14:32.134Z,103099.64
2023-02-06T20:17:10.797Z,103096.25
2023-02-06T20:19:41.264Z,103095.08
2023-02-06T20:22:22.523Z,103096.31
2023-02-06T20:25:00.592Z,103098.15
2023-02-06T20:27:31.261Z,103091.27
2023-02-06T20:30:04.279Z,103094.06
2023-02-06T20:32:42.776Z,103092.30
2023-02-06T20:35:21.211Z,103100.02
2023-02-06T20:37:51.413Z,103096.19
2023-02-06T20:40:29.712Z,103094.50
2023-02-06T20:43:07.634Z,103091.66
2023-02-06T20:45:46.649Z,103091.52
2023-02-06T20:48:24.742Z,103100.04
2023-02-06T20:51:07.711Z,103107.09
2023-02-06T20:53:46.500Z,103105.41
2023-02-06T20:56:24.945Z,103116.77
2023-02-06T20:59:06.380Z,103111.66
2023-02-06T21:01:45.164Z,103110.28
2023-02-06T21:04:25.680Z,103110.79
2023-02-06T21:07:04.763Z,103106.06
2023-02-06T21:09:43.189Z,103110.17
2023-02-06T21:12:14.335Z,103108.95
2023-02-06T21:14:49.524Z,103114.55
2023-02-06T21:17:27.497Z,103120.69
2023-02-06T21:20:06.068Z,103116.91
2023-02-06T21:22:43.955Z,103120.86
2023-02-06T21:25:22.118Z,103127.61
2023-02-06T21:27:53.194Z,103130.70
2023-02-06T21:30:32.907Z,103129.85
2023-02-06T21:33:11.635Z,103132.27
2023-02-06T21:35:52.098Z,103129.34
2023-02-06T21:38:32.515Z,103126.02
2023-02-06T21:41:21.812Z,103125.80
2023-02-06T21:43:59.223Z,103120.37
2023-02-06T21:46:36.533Z,103125.33
2023-02-06T21:49:14.660Z,103122.20
2023-02-06T21:51:51.970Z,103120.12
2023-02-06T21:54:29.780Z,103120.31
2023-02-06T21:57:08.453Z,103121.52
2023-02-06T21:59:46.302Z,103123.41
2023-02-06T22:02:16.646Z,103116.38
2023-02-06T22:04:51.485Z,103113.85
2023-02-06T22:07:29.518Z,103111.08
2023-02-06T22:10:10.757Z,103114.58
2023-02-06T22:12:50.736Z,103109.81
2023-02-06T22:15:28.695Z,103102.96
2023-02-06T22:18:06.412Z,103099.63
2023-02-06T22:20:43.536Z,103090.45
2023-02-06T22:23:21.351Z,103092.27
2023-02-06T22:25:58.941Z,103099.10
2023-02-06T22:28:37.077Z,103097.13
2023-02-06T22:31:16.930Z,103089.63
2023-02-06T22:33:54.735Z,103083.56
2023-02-06T22:36:34.126Z,103078.66
2023-02-06T22:39:14.398Z,103087.13
2023-02-06T22:41:52.892Z,103083.27
2023-02-06T22:44:30.327Z,103079.45
2023-02-06T22:47:07.109Z,103078.89
2023-02-06T22:49:45.143Z,103081.87
2023-02-06T22:52:36.144Z,103074.55
2023-02-06T22:55:15.044Z,103076.21
2023-02-06T22:57:52.268Z,103067.13
2023-02-06T23:00:30.181Z,103069.86
2023-02-06T23:03:00.369Z,103074.05
2023-02-06T23:05:36.545Z,103072.81
2023-02-06T23:08:13.015Z,103075.84
2023-02-06T23:10:52.179Z,103088.73
2023-02-06T23:13:30.064Z,103093.11
2023-02-06T23:16:08.974Z,103087.89
2023-02-06T23:18:47.054Z,103093.88
2023-02-06T23:21:26.024Z,103093.52
2023-02-06T23:24:03.898Z,103092.55
2023-02-06T23:26:44.856Z,103088.13
2023-02-06T23:29:24.228Z,103083.67
2023-02-06T23:32:02.998Z,103080.58
2023-02-06T23:34:41.223Z,103081.65
2023-02-06T23:37:18.746Z,103082.41
2023-02-06T23:39:56.981Z,103083.14
2023-02-06T23:42:29.713Z,103069.70
2023-02-06T23:45:07.887Z,103078.48
2023-02-06T23:47:45.729Z,103078.48
2023-02-06T23:50:23.169Z,103073.69
2023-02-06T23:52:54.026Z,103070.20
2023-02-06T23:55:30.861Z,103074.48
2023-02-06T23:58:08.679Z,103073.79
